sensor_id;sensor_type;location;lat;lon;timestamp;temperature;humidity
6666;DHT22;3369;49.906;8.598;2023-11-19T04:54:47;9.40;99.90
6666;DHT22;3369;49.906;8.598;2023-11-19T04:57:13;9.50;99.90
6666;DHT22;3369;49.906;8.598;2023-11-19T04:59:40;9.50;99.90
6666;DHT22;3369;49.906;8.598;2023-11-19T05:02:07;9.50;99.90
6666;DHT22;3369;49.906;8.598;2023-11-19T05:04:33;9.50;99.90
6666;DHT22;3369;49.906;8.598;2023-11-19T05:07:01;9.60;99.90
6666;DHT22;3369;49.906;8.598;2023-11-19T05:09:33;9.50;99.90
6666;DHT22;3369;49.906;8.598;2023-11-19T05:12:04;9.60;99.90
6666;DHT22;3369;49.906;8.598;2023-11-19T05:14:35;9.60;99.90
6666;DHT22;3369;49.906;8.598;2023-11-19T05:17:04;9.60;99.90
6666;DHT22;3369;49.906;8.598;2023-11-19T05:19:32;9.60;99.90
6666;DHT22;3369;49.906;8.598;2023-11-19T05:21:58;9.60;99.90
6666;DHT22;3369;49.906;8.598;2023-11-19T05:24:32;9.70;99.90
6666;DHT22;3369;49.906;8.598;2023-11-19T05:27:02;9.70;99.90
6666;DHT22;3369;49.906;8.598;2023-11-19T05:29:27;9.70;99.90
6666;DHT22;3369;49.906;8.598;2023-11-19T05:31:58;9.70;99.90
6666;DHT22;3369;49.906;8.598;2023-11-19T05:34:31;9.70;99.90
6666;DHT22;3369;49.906;8.598;2023-11-19T05:37:04;9.70;99.90
6666;DHT22;3369;49.906;8.598;2023-11-19T05:39:37;9.80;99.90
6666;DHT22;3369;49.906;8.598;2023-11-19T05:42:08;9.80;99.90
6666;DHT22;3369;49.906;8.598;2023-11-19T05:44:35;9.80;99.90
6666;DHT22;3369;49.906;8.598;2023-11-19T05:47:08;9.80;99.90
6666;DHT22;3369;49.906;8.598;2023-11-19T05:49:35;9.90;99.90
6666;DHT22;3369;49.906;8.598;2023-11-19T05:52:01;9.90;99.90
6666;DHT22;3369;49.906;8.598;2023-11-19T05:54:28;9.90;99.90
6666;DHT22;3369;49.906;8.598;2023-11-19T05:57:00;9.90;99.90
6666;DHT22;3369;49.906;8.598;2023-11-19T05:59:29;10.00;99.90
6666;DHT22;3369;49.906;8.598;2023-11-19T06:01:57;9.90;99.90
6666;DHT22;3369;49.906;8.598;2023-11-19T06:04:24;10.00;99.90
6666;DHT22;3369;49.906;8.598;2023-11-19T06:06:50;9.90;99.90
6666;DHT22;3369;49.906;8.598;2023-11-19T06:09:16;10.00;99.90
6666;DHT22;3369;49.906;8.598;2023-11-19T06:11:44;10.00;99.90
6666;DHT22;3369;49.906;8.598;2023-11-19T06:14:10;10.00;99.90
6666;DHT22;3369;49.906;8.598;2023-11-19T06:16:37;10.00;99.90
6666;DHT22;3369;49.906;8.598;2023-11-19T06:19:05;10.00;99.90
6666;DHT22;3369;49.906;8.598;2023-11-19T06:21:31;10.00;99.90
6666;DHT22;3369;49.906;8.598;2023-11-19T06:23:56;10.10;99.90
6666;DHT22;3369;49.906;8.598;2023-11-19T06:26:26;10.10;99.90
6666;DHT22;3369;49.906;8.598;2023-11-19T06:28:52;10.10;99.90
6666;DHT22;3369;49.906;8.598;2023-11-19T06:31:19;10.10;99.90
6666;DHT22;3369;49.906;8.598;2023-11-19T06:33:46;10.10;99.90
6666;DHT22;3369;49.906;8.598;2023-11-19T06:36:17;10.10;99.90
6666;DHT22;3369;49.906;8.598;2023-11-19T06:38:43;10.20;99.90
6666;DHT22;3369;49.906;8.598;2023-11-19T06:41:11;10.10;99.90
6666;DHT22;3369;49.906;8.598;2023-11-19T06:43:37;10.20;99.90
6666;DHT22;3369;49.906;8.598;2023-11-19T06:46:05;10.20;99.90
6666;DHT22;3369;49.906;8.598;2023-11-19T06:48:34;10.20;99.90
6666;DHT22;3369;49.906;8.598;2023-11-19T06:51:05;10.20;99.90
6666;DHT22;3369;49.906;8.598;2023-11-19T06:53:30;10.20;99.90
6666;DHT22;3369;49.906;8.598;2023-11-19T06:55:56;10.30;99.90
6666;DHT22;3369;49.906;8.598;2023-11-19T06:58:23;10.30;99.90
6666;DHT22;3369;49.906;8.598;2023-11-19T07:00:50;10.30;99.90
6666;DHT22;3369;49.906;8.598;2023-11-19T07:03:16;10.40;99.90
6666;DHT22;3369;49.906;8.598;2023-11-19T07:05:43;10.40;99.90
6666;DHT22;3369;49.906;8.598;2023-11-19T07:08:09;10.40;99.90
6666;DHT22;3369;49.906;8.598;2023-11-19T07:10:35;10.30;99.90
6666;DHT22;3369;49.906;8.598;2023-11-19T07:13:01;10.40;99.90
6666;DHT22;3369;49.906;8.598;2023-11-19T07:15:27;10.40;99.90
6666;DHT22;3369;49.906;8.598;2023-11-19T07:17:55;10.40;99.90
6666;DHT22;3369;49.906;8.598;2023-11-19T07:20:26;10.40;99.90
6666;DHT22;3369;49.906;8.598;2023-11-19T07:22:59;10.40;99.90
6666;DHT22;3369;49.906;8.598;2023-11-19T07:25:27;10.40;99.90
6666;DHT22;3369;49.906;8.598;2023-11-19T07:27:56;10.40;99.90
6666;DHT22;3369;49.906;8.598;2023-11-19T07:30:42;10.40;99.90
6666;DHT22;3369;49.906;8.598;2023-11-19T07:33:28;10.40;99.90
6666;DHT22;3369;49.906;8.598;2023-11-19T07:35:57;10.40;99.90
6666;DHT22;3369;49.906;8.598;2023-11-19T07:38:26;10.40;99.90
6666;DHT22;3369;49.906;8.598;2023-11-19T07:40:57;10.40;99.90
6666;DHT22;3369;49.906;8.598;2023-11-19T07:43:33;10.40;99.90
6666;DHT22;3369;49.906;8.598;2023-11-19T07:46:00;10.50;99.90
6666;DHT22;3369;49.906;8.598;2023-11-19T07:48:28;10.50;99.90
6666;DHT22;3369;49.906;8.598;2023-11-19T07:51:00;10.50;99.90
6666;DHT22;3369;49.906;8.598;2023-11-19T07:53:31;10.50;99.90
6666;DHT22;3369;49.906;8.598;2023-11-19T07:56:09;10.50;99.90
6666;DHT22;3369;49.906;8.598;2023-11-19T07:58:53;10.60;99.90
6666;DHT22;3369;49.906;8.598;2023-11-19T08:01:21;10.60;99.90
6666;DHT22;3369;49.906;8.598;2023-11-19T08:03:51;10.70;99.90
6666;DHT22;3369;49.906;8.598;2023-11-19T08:06:17;10.70;99.90
6666;DHT22;3369;49.906;8.598;2023-11-19T08:08:46;10.70;99.90
6666;DHT22;3369;49.906;8.598;2023-11-19T08:13:58;10.80;99.90
6666;DHT22;3369;49.906;8.598;2023-11-19T08:16:25;10.80;99.90
6666;DHT22;3369;49.906;8.598;2023-11-19T08:18:51;10.90;99.90
6666;DHT22;3369;49.906;8.598;2023-11-19T08:21:28;10.90;99.90
6666;DHT22;3369;49.906;8.598;2023-11-19T08:23:58;10.90;99.90
6666;DHT22;3369;49.906;8.598;2023-11-19T08:26:30;11.00;99.90
6666;DHT22;3369;49.906;8.598;2023-11-19T08:28:56;11.00;99.90
6666;DHT22;3369;49.906;8.598;2023-11-19T08:31:27;11.10;99.90
6666;DHT22;3369;49.906;8.598;2023-11-19T08:33:54;11.10;99.90
6666;DHT22;3369;49.906;8.598;2023-11-19T08:36:20;11.20;99.90
6666;DHT22;3369;49.906;8.598;2023-11-19T08:38:54;11.30;99.90
6666;DHT22;3369;49.906;8.598;2023-11-19T08:41:28;11.40;99.90
6666;DHT22;3369;49.906;8.598;2023-11-19T08:44:20;11.40;99.90
6666;DHT22;3369;49.906;8.598;2023-11-19T08:46:49;11.50;99.90
6666;DHT22;3369;49.906;8.598;2023-11-19T08:49:18;11.50;99.90
6666;DHT22;3369;49.906;8.598;2023-11-19T08:52:01;11.60;99.90
6666;DHT22;3369;49.906;8.598;2023-11-19T08:54:28;11.60;99.90
6666;DHT22;3369;49.906;8.598;2023-11-19T08:56:56;11.60;99.90
6666;DHT22;3369;49.906;8.598;2023-11-19T08:59:28;11.60;99.90
6666;DHT22;3369;49.906;8.598;2023-11-19T09:02:10;11.60;99.90
6666;DHT22;3369;49.906;8.598;2023-11-19T09:04:43;11.60;99.90
6666;DHT22;3369;49.906;8.598;2023-11-19T09:07:09;11.60;99.90
6666;DHT22;3369;49.906;8.598;2023-11-19T09:09:38;11.60;99.90
6666;DHT22;3369;49.906;8.598;2023-11-19T09:12:06;11.70;99.90
6666;DHT22;3369;49.906;8.598;2023-11-19T09:14:37;11.80;99.90
6666;DHT22;3369;49.906;8.598;2023-11-19T09:17:05;11.80;99.90
6666;DHT22;3369;49.906;8.598;2023-11-19T09:19:32;11.80;99.90
6666;DHT22;3369;49.906;8.598;2023-11-19T09:22:03;11.90;99.90
6666;DHT22;3369;49.906;8.598;2023-11-19T09:24:32;11.90;99.90
6666;DHT22;3369;49.906;8.598;2023-11-19T09:27:01;11.90;99.90
6666;DHT22;3369;49.906;8.598;2023-11-19T09:29:44;12.00;99.90
6666;DHT22;3369;49.906;8.598;2023-11-19T09:32:14;12.10;99.90
6666;DHT22;3369;49.906;8.598;2023-11-19T09:35:13;12.20;99.90
6666;DHT22;3369;49.906;8.598;2023-11-19T09:37:40;12.30;99.90
6666;DHT22;3369;49.906;8.598;2023-11-19T09:40:14;12.30;99.90
6666;DHT22;3369;49.906;8.598;2023-11-19T09:42:44;12.30;99.90
6666;DHT22;3369;49.906;8.598;2023-11-19T09:45:17;12.20;99.90
6666;DHT22;3369;49.906;8.598;2023-11-19T09:47:50;12.30;99.90
6666;DHT22;3369;49.906;8.598;2023-11-19T09:50:31;12.30;99.90
6666;DHT22;3369;49.906;8.598;2023-11-19T09:53:01;12.20;99.90
6666;DHT22;3369;49.906;8.598;2023-11-19T09:55:56;12.20;99.90
6666;DHT22;3369;49.906;8.598;2023-11-19T09:58:40;12.30;99.90
6666;DHT22;3369;49.906;8.598;2023-11-19T10:01:14;12.30;99.90
6666;DHT22;3369;49.906;8.598;2023-11-19T10:03:48;12.30;99.90
6666;DHT22;3369;49.906;8.598;2023-11-19T10:06:29;12.30;99.90
6666;DHT22;3369;49.906;8.598;2023-11-19T10:08:58;12.30;99.90
6666;DHT22;3369;49.906;8.598;2023-11-19T10:14:34;12.40;99.90
6666;DHT22;3369;49.906;8.598;2023-11-19T10:17:07;12.40;99.90
6666;DHT22;3369;49.906;8.598;2023-11-19T10:19:33;12.40;99.90
6666;DHT22;3369;49.906;8.598;2023-11-19T10:22:13;12.50;99.90
6666;DHT22;3369;49.906;8.598;2023-11-19T10:27:52;12.60;99.90
6666;DHT22;3369;49.906;8.598;2023-11-19T10:30:29;12.60;99.90
6666;DHT22;3369;49.906;8.598;2023-11-19T10:33:14;12.60;99.90
6666;DHT22;3369;49.906;8.598;2023-11-19T10:35:58;12.70;99.90
6666;DHT22;3369;49.906;8.598;2023-11-19T10:38:26;12.70;99.90
6666;DHT22;3369;49.906;8.598;2023-11-19T10:40:52;12.60;99.90
6666;DHT22;3369;49.906;8.598;2023-11-19T10:43:19;12.70;99.90
6666;DHT22;3369;49.906;8.598;2023-11-19T10:45:46;12.70;99.90
6666;DHT22;3369;49.906;8.598;2023-11-19T10:48:13;12.70;99.90
6666;DHT22;3369;49.906;8.598;2023-11-19T10:50:42;12.70;99.90
6666;DHT22;3369;49.906;8.598;2023-11-19T10:53:11;12.80;99.90
6666;DHT22;3369;49.906;8.598;2023-11-19T10:55:47;12.80;99.90
6666;DHT22;3369;49.906;8.598;2023-11-19T10:58:19;12.90;99.90
6666;DHT22;3369;49.906;8.598;2023-11-19T11:00:46;12.90;99.90
6666;DHT22;3369;49.906;8.598;2023-11-19T11:03:39;12.90;99.90
6666;DHT22;3369;49.906;8.598;2023-11-19T11:06:06;13.00;99.90
6666;DHT22;3369;49.906;8.598;2023-11-19T11:08:32;13.10;99.90
6666;DHT22;3369;49.906;8.598;2023-11-19T11:11:03;13.20;99.90
6666;DHT22;3369;49.906;8.598;2023-11-19T11:13:31;13.30;99.90
6666;DHT22;3369;49.906;8.598;2023-11-19T11:15:58;13.30;99.90
6666;DHT22;3369;49.906;8.598;2023-11-19T11:18:24;13.40;99.90
6666;DHT22;3369;49.906;8.598;2023-11-19T11:21:03;13.40;99.90
6666;DHT22;3369;49.906;8.598;2023-11-19T11:38:29;14.00;99.90
6666;DHT22;3369;49.906;8.598;2023-11-19T11:41:16;14.00;99.90
6666;DHT22;3369;49.906;8.598;2023-11-19T11:43:47;14.00;99.90
6666;DHT22;3369;49.906;8.598;2023-11-19T11:49:06;14.10;99.90
6666;DHT22;3369;49.906;8.598;2023-11-19T11:57:08;14.10;99.90
6666;DHT22;3369;49.906;8.598;2023-11-19T11:59:43;14.10;99.90
6666;DHT22;3369;49.906;8.598;2023-11-19T12:02:15;14.10;99.90
6666;DHT22;3369;49.906;8.598;2023-11-19T12:04:46;14.20;99.90
6666;DHT22;3369;49.906;8.598;2023-11-19T12:07:15;14.20;99.90
6666;DHT22;3369;49.906;8.598;2023-11-19T12:09:51;14.20;99.90
6666;DHT22;3369;49.906;8.598;2023-11-19T12:12:27;14.30;99.90
6666;DHT22;3369;49.906;8.598;2023-11-19T12:20:21;15.00;99.90
6666;DHT22;3369;49.906;8.598;2023-11-19T12:22:48;15.10;99.90
6666;DHT22;3369;49.906;8.598;2023-11-19T12:25:17;15.10;99.90
6666;DHT22;3369;49.906;8.598;2023-11-19T12:27:54;15.20;99.90
6666;DHT22;3369;49.906;8.598;2023-11-19T12:30:29;15.10;99.90
6666;DHT22;3369;49.906;8.598;2023-11-19T12:32:58;15.10;99.90
6666;DHT22;3369;49.906;8.598;2023-11-19T12:35:24;15.10;99.90
6666;DHT22;3369;49.906;8.598;2023-11-19T12:37:51;15.10;99.90
6666;DHT22;3369;49.906;8.598;2023-11-19T12:40:25;15.10;99.90
6666;DHT22;3369;49.906;8.598;2023-11-19T12:42:54;15.10;99.90
6666;DHT22;3369;49.906;8.598;2023-11-19T12:45:21;15.10;99.90
6666;DHT22;3369;49.906;8.598;2023-11-19T12:48:07;15.10;99.90
6666;DHT22;3369;49.906;8.598;2023-11-19T12:50:57;15.20;99.90
6666;DHT22;3369;49.906;8.598;2023-11-19T12:53:25;15.20;99.90
6666;DHT22;3369;49.906;8.598;2023-11-19T12:56:11;15.30;99.90
6666;DHT22;3369;49.906;8.598;2023-11-19T12:58:46;15.30;99.90
6666;DHT22;3369;49.906;8.598;2023-11-19T13:02:14;15.30;98.70
6666;DHT22;3369;49.906;8.598;2023-11-19T13:04:53;15.30;98.70
6666;DHT22;3369;49.906;8.598;2023-11-19T13:07:41;15.30;98.60
6666;DHT22;3369;49.906;8.598;2023-11-19T13:13:14;15.20;98.30
6666;DHT22;3369;49.906;8.598;2023-11-19T13:15:53;15.20;98.40
6666;DHT22;3369;49.906;8.598;2023-11-19T13:18:22;15.00;98.40
6666;DHT22;3369;49.906;8.598;2023-11-19T13:20:53;15.00;98.90
6666;DHT22;3369;49.906;8.598;2023-11-19T13:23:18;15.00;99.00
6666;DHT22;3369;49.906;8.598;2023-11-19T13:25:45;15.00;99.10
6666;DHT22;3369;49.906;8.598;2023-11-19T13:28:19;15.00;99.10
6666;DHT22;3369;49.906;8.598;2023-11-19T13:30:45;15.00;99.10
6666;DHT22;3369;49.906;8.598;2023-11-19T13:33:11;15.10;99.30
6666;DHT22;3369;49.906;8.598;2023-11-19T13:35:38;15.10;99.20
6666;DHT22;3369;49.906;8.598;2023-11-19T13:38:13;15.20;99.30
6666;DHT22;3369;49.906;8.598;2023-11-19T13:40:41;15.20;99.40
6666;DHT22;3369;49.906;8.598;2023-11-19T13:43:06;15.20;99.50
6666;DHT22;3369;49.906;8.598;2023-11-19T13:48:19;15.20;99.40
6666;DHT22;3369;49.906;8.598;2023-11-19T13:50:54;15.20;99.60
6666;DHT22;3369;49.906;8.598;2023-11-19T13:53:20;15.10;99.70
6666;DHT22;3369;49.906;8.598;2023-11-19T13:55:50;15.10;99.90
6666;DHT22;3369;49.906;8.598;2023-11-19T13:58:16;15.00;99.90
6666;DHT22;3369;49.906;8.598;2023-11-19T14:00:45;14.90;99.90
6666;DHT22;3369;49.906;8.598;2023-11-19T14:03:21;14.80;99.90
6666;DHT22;3369;49.906;8.598;2023-11-19T14:05:47;14.80;99.90
6666;DHT22;3369;49.906;8.598;2023-11-19T14:08:20;14.70;99.90
6666;DHT22;3369;49.906;8.598;2023-11-19T14:10:46;14.60;99.90
6666;DHT22;3369;49.906;8.598;2023-11-19T14:13:12;14.60;99.90
6666;DHT22;3369;49.906;8.598;2023-11-19T14:15:43;14.50;99.90
6666;DHT22;3369;49.906;8.598;2023-11-19T14:18:12;14.50;99.90
6666;DHT22;3369;49.906;8.598;2023-11-19T14:21:03;14.50;99.90
6666;DHT22;3369;49.906;8.598;2023-11-19T14:23:56;14.40;99.90
6666;DHT22;3369;49.906;8.598;2023-11-19T14:27:01;14.40;99.90
6666;DHT22;3369;49.906;8.598;2023-11-19T14:29:38;14.30;99.90
6666;DHT22;3369;49.906;8.598;2023-11-19T14:42:30;14.40;99.30
6666;DHT22;3369;49.906;8.598;2023-11-19T14:45:06;14.40;99.30
6666;DHT22;3369;49.906;8.598;2023-11-19T14:48:26;14.40;99.30
6666;DHT22;3369;49.906;8.598;2023-11-19T14:51:17;14.40;99.40
6666;DHT22;3369;49.906;8.598;2023-11-19T14:54:17;14.40;99.40
6666;DHT22;3369;49.906;8.598;2023-11-19T14:57:10;14.40;99.60
6666;DHT22;3369;49.906;8.598;2023-11-19T14:59:46;14.30;99.60
6666;DHT22;3369;49.906;8.598;2023-11-19T15:02:16;14.20;98.50
6666;DHT22;3369;49.906;8.598;2023-11-19T15:04:44;14.20;98.60
6666;DHT22;3369;49.906;8.598;2023-11-19T15:07:10;14.20;98.70
6666;DHT22;3369;49.906;8.598;2023-11-19T15:09:46;14.20;98.80
6666;DHT22;3369;49.906;8.598;2023-11-19T15:12:14;14.10;99.00
6666;DHT22;3369;49.906;8.598;2023-11-19T15:14:48;14.10;99.00
6666;DHT22;3369;49.906;8.598;2023-11-19T15:17:15;14.00;99.10
6666;DHT22;3369;49.906;8.598;2023-11-19T15:19:42;13.90;99.20
6666;DHT22;3369;49.906;8.598;2023-11-19T15:22:21;13.80;99.20
6666;DHT22;3369;49.906;8.598;2023-11-19T15:31:29;13.50;99.30
6666;DHT22;3369;49.906;8.598;2023-11-19T15:33:57;13.50;99.30
6666;DHT22;3369;49.906;8.598;2023-11-19T15:36:23;13.40;99.30
6666;DHT22;3369;49.906;8.598;2023-11-19T15:39:02;13.30;99.20
6666;DHT22;3369;49.906;8.598;2023-11-19T15:44:22;13.30;99.30
6666;DHT22;3369;49.906;8.598;2023-11-19T15:47:10;13.20;99.20
6666;DHT22;3369;49.906;8.598;2023-11-19T15:49:42;13.20;99.20
6666;DHT22;3369;49.906;8.598;2023-11-19T15:55:19;13.10;99.10
6666;DHT22;3369;49.906;8.598;2023-11-19T15:57:47;13.10;99.10
6666;DHT22;3369;49.906;8.598;2023-11-19T16:03:39;13.00;99.00
6666;DHT22;3369;49.906;8.598;2023-11-19T16:06:08;13.00;98.90
6666;DHT22;3369;49.906;8.598;2023-11-19T16:08:36;13.00;98.90
6666;DHT22;3369;49.906;8.598;2023-11-19T16:11:03;13.00;98.90
6666;DHT22;3369;49.906;8.598;2023-11-19T16:13:35;12.90;98.80
6666;DHT22;3369;49.906;8.598;2023-11-19T16:20:27;12.90;98.90
6666;DHT22;3369;49.906;8.598;2023-11-19T16:22:56;12.90;99.00
6666;DHT22;3369;49.906;8.598;2023-11-19T16:25:26;12.80;99.00
6666;DHT22;3369;49.906;8.598;2023-11-19T16:28:18;12.80;99.10
6666;DHT22;3369;49.906;8.598;2023-11-19T16:31:06;12.80;99.20
6666;DHT22;3369;49.906;8.598;2023-11-19T16:33:45;12.80;99.30
6666;DHT22;3369;49.906;8.598;2023-11-19T16:39:51;12.70;99.50
6666;DHT22;3369;49.906;8.598;2023-11-19T16:43:17;12.60;99.50
6666;DHT22;3369;49.906;8.598;2023-11-19T16:46:04;12.50;99.70
6666;DHT22;3369;49.906;8.598;2023-11-19T16:48:56;12.40;99.70
6666;DHT22;3369;49.906;8.598;2023-11-19T16:52:18;12.40;99.80
6666;DHT22;3369;49.906;8.598;2023-11-19T16:54:56;12.40;99.80
6666;DHT22;3369;49.906;8.598;2023-11-19T17:07:03;12.30;99.90
6666;DHT22;3369;49.906;8.598;2023-11-19T17:09:37;12.30;99.90
6666;DHT22;3369;49.906;8.598;2023-11-19T17:44:14;12.10;99.90
6666;DHT22;3369;49.906;8.598;2023-11-19T18:43:43;11.70;99.90
6666;DHT22;3369;49.906;8.598;2023-11-19T19:52:21;11.60;99.90
6666;DHT22;3369;49.906;8.598;2023-11-19T19:55:08;11.60;99.90
6666;DHT22;3369;49.906;8.598;2023-11-19T21:33:47;12.00;99.90
6666;DHT22;3369;49.906;8.598;2023-11-19T21:53:55;12.10;99.90
6666;DHT22;3369;49.906;8.598;2023-11-19T22:03:42;12.10;99.90
6666;DHT22;3369;49.906;8.598;2023-11-19T22:20:05;12.10;99.90
6666;DHT22;3369;49.906;8.598;2023-11-19T22:33:10;12.10;99.90
6666;DHT22;3369;49.906;8.598;2023-11-19T22:52:22;12.10;99.90
6666;DHT22;3369;49.906;8.598;2023-11-19T23:05:02;12.10;99.90
6666;DHT22;3369;49.906;8.598;2023-11-19T23:17:29;12.10;99.90
6666;DHT22;3369;49.906;8.598;2023-11-19T23:21:23;12.10;99.90
6666;DHT22;3369;49.906;8.598;2023-11-19T23:23:56;12.20;99.90
6666;DHT22;3369;49.906;8.598;2023-11-19T23:27:24;12.20;99.90
6666;DHT22;3369;49.906;8.598;2023-11-19T23:30:09;12.10;99.90
6666;DHT22;3369;49.906;8.598;2023-11-19T23:33:11;12.10;99.90
6666;DHT22;3369;49.906;8.598;2023-11-19T23:55:29;12.10;99.90
